createdAt,value
2022-10-02T00:02:49.167Z,63.18
2022-10-02T00:05:38.891Z,63.56
2022-10-02T00:08:28.502Z,65.50
2022-10-02T00:11:19.821Z,65.31
2022-10-02T00:14:06.205Z,65.98
2022-10-02T00:16:53.209Z,66.96
2022-10-02T00:19:38.379Z,67.57
2022-10-02T00:22:42.495Z,68.95
2022-10-02T00:25:32.444Z,69.53
2022-10-02T00:28:23.966Z,68.92
2022-10-02T00:31:23.320Z,70.04
2022-10-02T00:34:22.002Z,69.57
2022-10-02T00:37:14.193Z,69.76
2022-10-02T00:40:23.200Z,70.08
2022-10-02T00:43:20.050Z,70.54
2022-10-02T00:46:33.772Z,70.78
2022-10-02T00:49:34.177Z,72.59
2022-10-02T00:52:37.958Z,72.47
2022-10-02T00:55:34.958Z,73.07
2022-10-02T00:58:33.153Z,72.36
2022-10-02T01:01:21.826Z,72.52
2022-10-02T01:04:10.487Z,73.89
2022-10-02T01:06:54.412Z,74.07
2022-10-02T01:09:40.700Z,74.65
2022-10-02T01:12:25.584Z,74.58
2022-10-02T01:15:13.595Z,75.91
2022-10-02T01:17:58.005Z,75.31
2022-10-02T01:20:44.866Z,76.66
2022-10-02T01:23:35.004Z,77.73
2022-10-02T01:26:20.462Z,77.01
2022-10-02T01:29:04.236Z,77.92
2022-10-02T01:31:47.982Z,77.86
2022-10-02T01:34:33.878Z,78.84
2022-10-02T01:37:17.825Z,79.33
2022-10-02T01:40:06.847Z,80.34
2022-10-02T01:42:52.480Z,79.82
2022-10-02T01:45:52.548Z,80.09
2022-10-02T01:48:46.219Z,79.79
2022-10-02T01:51:44.985Z,78.32
2022-10-02T01:54:53.061Z,76.27
2022-10-02T01:57:55.457Z,77.84
2022-10-02T02:00:48.145Z,77.35
2022-10-02T02:03:41.230Z,77.49
2022-10-02T02:06:31.940Z,75.88
2022-10-02T02:09:20.524Z,75.83
2022-10-02T02:12:12.931Z,74.38
2022-10-02T02:15:04.483Z,73.17
2022-10-02T02:17:53.611Z,75.49
2022-10-02T02:20:43.952Z,74.86
2022-10-02T02:23:31.998Z,75.36
2022-10-02T02:26:18.889Z,76.11
2022-10-02T02:29:05.963Z,74.88
2022-10-02T02:31:55.483Z,74.95
2022-10-02T02:34:44.832Z,75.28
2022-10-02T02:37:33.164Z,75.82
2022-10-02T02:40:19.790Z,76.05
2022-10-02T02:43:09.051Z,78.07
2022-10-02T02:45:57.552Z,78.95
2022-10-02T02:48:47.082Z,78.41
2022-10-02T02:51:36.897Z,78.87
2022-10-02T02:54:24.966Z,77.81
2022-10-02T02:57:10.525Z,77.32
2022-10-02T02:59:57.748Z,78.80
2022-10-02T03:02:41.552Z,78.82
2022-10-02T03:05:27.798Z,78.66
2022-10-02T03:08:19.751Z,78.79
2022-10-02T03:11:13.236Z,79.16
2022-10-02T03:14:06.176Z,79.88
2022-10-02T03:16:58.524Z,80.52
2022-10-02T03:19:49.266Z,81.24
2022-10-02T03:22:44.168Z,81.94
2022-10-02T03:25:32.103Z,81.00
2022-10-02T03:28:43.561Z,79.54
2022-10-02T03:31:29.687Z,79.98
2022-10-02T03:34:14.124Z,79.35
2022-10-02T03:36:58.079Z,78.33
2022-10-02T03:39:44.339Z,78.19
2022-10-02T03:42:33.341Z,77.79
2022-10-02T03:45:33.016Z,77.60
2022-10-02T03:48:21.106Z,78.83
2022-10-02T03:51:05.061Z,78.93
2022-10-02T03:53:48.794Z,78.58
2022-10-02T03:56:41.622Z,78.20
2022-10-02T03:59:40.077Z,77.98
2022-10-02T04:02:32.959Z,78.25
2022-10-02T04:05:25.169Z,77.73
2022-10-02T04:08:17.901Z,78.95
2022-10-02T04:11:08.734Z,79.05
2022-10-02T04:14:00.339Z,77.94
2022-10-02T04:16:52.180Z,76.94
2022-10-02T04:19:43.451Z,76.41
2022-10-02T04:22:34.679Z,77.13
2022-10-02T04:25:21.051Z,79.02
2022-10-02T04:28:09.116Z,79.50
2022-10-02T04:30:55.177Z,80.23
2022-10-02T04:33:39.134Z,80.89
2022-10-02T04:36:39.406Z,80.39
2022-10-02T04:39:45.903Z,79.74
2022-10-02T04:42:44.061Z,79.40
2022-10-02T04:45:55.266Z,79.86
2022-10-02T04:49:03.781Z,79.82
2022-10-02T04:52:01.234Z,78.35
2022-10-02T04:55:08.136Z,77.52
2022-10-02T04:58:07.505Z,78.36
2022-10-02T05:01:02.539Z,77.47
2022-10-02T05:04:19.253Z,78.49
2022-10-02T05:07:16.388Z,78.00
2022-10-02T05:10:09.367Z,76.90
2022-10-02T05:13:05.354Z,76.60
2022-10-02T05:16:07.048Z,76.40
2022-10-02T05:19:19.114Z,74.72
2022-10-02T05:22:24.390Z,75.78
2022-10-02T05:25:24.362Z,75.65
2022-10-02T05:28:40.493Z,76.72
2022-10-02T05:31:35.849Z,76.24
2022-10-02T05:34:36.406Z,76.39
2022-10-02T05:37:34.643Z,74.87
2022-10-02T05:40:25.943Z,74.40
2022-10-02T05:43:14.195Z,75.25
2022-10-02T05:46:00.695Z,74.75
2022-10-02T05:48:48.014Z,74.11
2022-10-02T05:51:42.786Z,73.65
2022-10-02T05:54:35.775Z,71.98
2022-10-02T05:57:27.401Z,71.21
2022-10-02T06:00:23.312Z,71.52
2022-10-02T06:03:16.497Z,71.68
2022-10-02T06:06:04.166Z,70.24
2022-10-02T06:08:56.491Z,69.91
2022-10-02T06:11:45.723Z,69.90
2022-10-02T06:14:35.429Z,70.26
2022-10-02T06:17:25.942Z,70.35
2022-10-02T06:20:19.071Z,68.26
2022-10-02T06:23:08.739Z,68.53
2022-10-02T06:25:57.420Z,67.74
2022-10-02T06:28:45.206Z,69.98
2022-10-02T06:31:39.407Z,70.74
2022-10-02T06:34:24.456Z,71.30
2022-10-02T06:37:26.428Z,71.15
2022-10-02T06:40:35.825Z,70.96
2022-10-02T06:43:42.030Z,70.63
2022-10-02T06:46:34.443Z,71.34
2022-10-02T06:49:32.831Z,70.53
2022-10-02T06:52:28.644Z,69.27
2022-10-02T06:55:38.754Z,69.28
2022-10-02T06:58:45.441Z,68.48
2022-10-02T07:01:39.952Z,67.40
2022-10-02T07:04:46.807Z,67.58
2022-10-02T07:07:43.254Z,68.85
2022-10-02T07:10:35.783Z,68.03
2022-10-02T07:13:32.653Z,67.97
2022-10-02T07:16:32.063Z,67.05
2022-10-02T07:19:31.456Z,68.00
2022-10-02T07:22:44.657Z,68.50
2022-10-02T07:25:45.254Z,66.63
2022-10-02T07:28:38.132Z,66.46
2022-10-02T07:31:34.578Z,65.16
2022-10-02T07:34:34.231Z,63.74
2022-10-02T07:37:27.944Z,63.18
2022-10-02T07:40:32.335Z,62.81
2022-10-02T07:43:29.247Z,62.34
2022-10-02T07:46:20.613Z,63.05
2022-10-02T07:49:21.201Z,62.64
2022-10-02T07:52:17.901Z,62.04
2022-10-02T07:55:16.084Z,62.11
2022-10-02T07:58:07.107Z,61.60
2022-10-02T08:00:55.794Z,61.48
2022-10-02T08:03:46.600Z,60.51
2022-10-02T08:06:33.045Z,59.56
2022-10-02T08:09:24.064Z,59.20
2022-10-02T08:12:21.790Z,59.14
2022-10-02T08:15:08.388Z,58.33
2022-10-02T08:17:58.703Z,59.05
2022-10-02T08:20:50.615Z,59.17
2022-10-02T08:23:39.026Z,58.02
2022-10-02T08:26:31.787Z,57.68
2022-10-02T08:29:22.508Z,57.60
2022-10-02T08:32:11.578Z,55.79
2022-10-02T08:34:56.213Z,52.85
2022-10-02T08:37:52.260Z,51.99
2022-10-02T08:41:08.626Z,51.52
2022-10-02T08:44:22.906Z,49.11
2022-10-02T08:47:44.114Z,49.26
2022-10-02T08:51:17.784Z,49.06
2022-10-02T08:54:42.781Z,49.15
2022-10-02T08:58:11.032Z,50.24
2022-10-02T09:01:06.848Z,49.70
2022-10-02T09:04:15.499Z,51.04
2022-10-02T09:07:35.364Z,51.17
2022-10-02T09:10:51.673Z,52.03
2022-10-02T09:14:11.164Z,51.91
2022-10-02T09:17:16.930Z,50.67
2022-10-02T09:20:22.582Z,49.60
2022-10-02T09:23:41.484Z,48.90
2022-10-02T09:26:37.643Z,46.49
2022-10-02T09:30:14.557Z,46.87
2022-10-02T09:33:40.441Z,46.68
2022-10-02T09:37:08.665Z,47.14
2022-10-02T09:40:33.028Z,45.81
2022-10-02T09:43:42.377Z,46.42
2022-10-02T09:47:04.764Z,45.96
2022-10-02T09:50:34.897Z,44.68
2022-10-02T09:53:59.516Z,43.97
2022-10-02T09:57:13.269Z,43.14
2022-10-02T10:00:12.984Z,43.61
2022-10-02T10:03:38.296Z,44.66
2022-10-02T10:06:39.315Z,45.88
2022-10-02T10:10:02.151Z,46.05
2022-10-02T10:13:26.579Z,46.32
2022-10-02T10:17:05.810Z,44.68
2022-10-02T10:20:25.765Z,45.26
2022-10-02T10:23:40.369Z,44.99
2022-10-02T10:26:52.815Z,44.60
2022-10-02T10:30:09.859Z,43.18
2022-10-02T10:33:20.128Z,43.28
2022-10-02T10:37:05.469Z,44.17
2022-10-02T10:40:18.723Z,43.53
2022-10-02T10:43:45.219Z,43.53
2022-10-02T10:46:51.166Z,43.83
2022-10-02T10:50:11.342Z,44.44
2022-10-02T10:53:12.781Z,43.53
2022-10-02T10:56:20.720Z,43.63
2022-10-02T10:59:25.445Z,43.15
2022-10-02T11:02:41.180Z,44.31
2022-10-02T11:05:54.689Z,43.67
2022-10-02T11:08:59.905Z,43.23
2022-10-02T11:11:59.216Z,43.13
2022-10-02T11:15:01.996Z,42.97
2022-10-02T11:18:15.325Z,42.53
2022-10-02T11:21:26.007Z,43.86
2022-10-02T11:24:32.383Z,43.73
2022-10-02T11:27:35.681Z,42.96
2022-10-02T11:30:23.498Z,43.35
2022-10-02T11:33:30.175Z,43.51
2022-10-02T11:36:41.693Z,42.77
2022-10-02T11:39:58.689Z,42.78
2022-10-02T11:43:15.580Z,42.25
2022-10-02T11:46:14.715Z,42.06
2022-10-02T11:49:34.484Z,40.58
2022-10-02T11:52:48.650Z,41.83
2022-10-02T11:55:50.567Z,41.37
2022-10-02T11:58:47.518Z,41.09
2022-10-02T12:01:43.183Z,42.00
2022-10-02T12:04:40.734Z,42.11
2022-10-02T12:07:37.659Z,42.61
2022-10-02T12:10:36.514Z,44.01
2022-10-02T12:13:54.709Z,43.24
2022-10-02T12:16:51.797Z,42.96
2022-10-02T12:20:04.093Z,41.68
2022-10-02T12:23:15.343Z,40.53
2022-10-02T12:26:26.408Z,40.04
2022-10-02T12:29:25.438Z,39.56
2022-10-02T12:32:23.180Z,39.77
2022-10-02T12:35:21.281Z,40.17
2022-10-02T12:38:17.371Z,40.86
2022-10-02T12:41:09.230Z,39.82
2022-10-02T12:44:27.448Z,39.32
2022-10-02T12:47:32.236Z,38.89
2022-10-02T12:50:25.813Z,39.00
2022-10-02T12:53:37.282Z,39.03
2022-10-02T12:56:54.984Z,38.91
2022-10-02T12:59:50.466Z,39.01
2022-10-02T13:03:19.340Z,38.24
2022-10-02T13:06:25.827Z,39.57
2022-10-02T13:09:21.020Z,39.21
2022-10-02T13:12:17.769Z,40.01
2022-10-02T13:15:33.806Z,40.06
2022-10-02T13:18:34.950Z,39.81
2022-10-02T13:21:26.770Z,40.16
2022-10-02T13:24:24.803Z,40.25
2022-10-02T13:27:20.700Z,40.31
2022-10-02T13:30:14.219Z,39.93
2022-10-02T13:33:10.834Z,40.21
2022-10-02T13:36:05.397Z,39.92
2022-10-02T13:39:10.564Z,39.45
2022-10-02T13:42:07.676Z,39.25
2022-10-02T13:45:02.402Z,38.80
2022-10-02T13:47:58.992Z,38.89
2022-10-02T13:50:50.969Z,38.47
2022-10-02T13:53:52.609Z,38.45
2022-10-02T13:56:46.318Z,38.55
2022-10-02T13:59:52.924Z,38.38
2022-10-02T14:02:49.696Z,39.03
2022-10-02T14:05:44.028Z,39.11
2022-10-02T14:08:49.037Z,40.02
2022-10-02T14:11:44.235Z,39.54
2022-10-02T14:14:41.183Z,40.06
2022-10-02T14:17:34.582Z,40.17
2022-10-02T14:20:28.366Z,39.80
2022-10-02T14:23:30.252Z,38.98
2022-10-02T14:26:26.873Z,38.40
2022-10-02T14:29:27.638Z,38.55
2022-10-02T14:32:36.580Z,38.63
2022-10-02T14:35:36.274Z,37.99
2022-10-02T14:38:54.915Z,38.50
2022-10-02T14:41:55.301Z,38.77
2022-10-02T14:45:05.305Z,38.80
2022-10-02T14:48:07.803Z,38.17
2022-10-02T14:51:16.240Z,38.44
2022-10-02T14:54:19.905Z,38.74
2022-10-02T14:57:28.033Z,38.89
2022-10-02T15:00:20.170Z,38.39
2022-10-02T15:03:37.619Z,38.12
2022-10-02T15:06:28.627Z,37.45
2022-10-02T15:09:20.842Z,37.20
2022-10-02T15:12:19.895Z,37.18
2022-10-02T15:15:10.401Z,37.20
2022-10-02T15:18:25.201Z,37.24
2022-10-02T15:21:27.047Z,37.31
2022-10-02T15:24:40.786Z,37.78
2022-10-02T15:27:28.028Z,36.89
2022-10-02T15:30:21.584Z,37.49
2022-10-02T15:33:17.516Z,37.17
2022-10-02T15:36:40.689Z,36.83
2022-10-02T15:39:57.102Z,37.44
2022-10-02T15:42:57.987Z,37.52
2022-10-02T15:46:12.404Z,37.25
2022-10-02T15:49:02.219Z,37.47
2022-10-02T15:52:00.330Z,37.90
2022-10-02T15:54:57.907Z,37.43
2022-10-02T15:57:54.858Z,37.34
2022-10-02T16:01:00.921Z,38.05
2022-10-02T16:03:49.178Z,37.16
2022-10-02T16:06:53.663Z,37.56
2022-10-02T16:09:51.055Z,38.22
2022-10-02T16:12:46.524Z,38.07
2022-10-02T16:15:48.027Z,38.04
2022-10-02T16:18:58.118Z,38.13
2022-10-02T16:22:01.355Z,37.89
2022-10-02T16:25:08.589Z,39.74
2022-10-02T16:28:14.437Z,38.39
2022-10-02T16:31:18.551Z,38.38
2022-10-02T16:34:10.140Z,38.60
2022-10-02T16:36:58.369Z,38.83
2022-10-02T16:40:03.147Z,38.83
2022-10-02T16:42:58.545Z,38.67
2022-10-02T16:45:57.354Z,39.33
2022-10-02T16:48:52.839Z,39.77
2022-10-02T16:51:50.552Z,39.81
2022-10-02T16:54:42.429Z,40.14
2022-10-02T16:57:49.715Z,40.44
2022-10-02T17:00:38.504Z,41.01
2022-10-02T17:03:29.455Z,41.31
2022-10-02T17:06:26.747Z,41.19
2022-10-02T17:09:17.201Z,41.11
2022-10-02T17:12:10.009Z,41.70
2022-10-02T17:15:00.567Z,42.09
2022-10-02T17:17:59.919Z,42.03
2022-10-02T17:20:48.620Z,42.33
2022-10-02T17:23:43.880Z,42.63
2022-10-02T17:26:37.963Z,42.63
2022-10-02T17:29:28.900Z,42.70
2022-10-02T17:32:12.691Z,42.99
2022-10-02T17:34:59.988Z,43.17
2022-10-02T17:38:09.901Z,43.50
2022-10-02T17:41:06.328Z,42.98
2022-10-02T17:43:58.675Z,43.28
2022-10-02T17:47:21.273Z,43.79
2022-10-02T17:50:26.198Z,42.79
2022-10-02T17:53:46.882Z,42.83
2022-10-02T17:56:55.929Z,42.81
2022-10-02T17:59:59.056Z,42.71
2022-10-02T18:03:07.663Z,42.58
2022-10-02T18:05:59.549Z,42.22
2022-10-02T18:09:19.264Z,42.61
2022-10-02T18:12:31.038Z,42.56
2022-10-02T18:15:28.306Z,42.97
2022-10-02T18:18:31.433Z,43.39
2022-10-02T18:21:33.887Z,43.62
2022-10-02T18:24:41.781Z,43.36
2022-10-02T18:27:53.435Z,43.75
2022-10-02T18:30:46.263Z,43.92
2022-10-02T18:34:17.211Z,43.96
2022-10-02T18:37:18.879Z,44.14
2022-10-02T18:40:18.642Z,43.95
2022-10-02T18:43:32.751Z,44.10
2022-10-02T18:46:26.797Z,43.91
2022-10-02T18:49:48.292Z,44.65
2022-10-02T18:52:53.947Z,43.62
2022-10-02T18:56:03.482Z,44.33
2022-10-02T18:59:02.948Z,44.50
2022-10-02T19:02:02.473Z,44.79
2022-10-02T19:05:03.488Z,45.11
2022-10-02T19:07:53.210Z,45.57
2022-10-02T19:10:44.983Z,45.53
2022-10-02T19:13:31.280Z,46.24
2022-10-02T19:16:25.471Z,46.44
2022-10-02T19:19:23.100Z,46.94
2022-10-02T19:22:17.809Z,47.29
2022-10-02T19:25:08.331Z,47.01
2022-10-02T19:27:55.373Z,47.07
2022-10-02T19:30:43.474Z,46.57
2022-10-02T19:33:42.286Z,47.37
2022-10-02T19:36:30.503Z,47.50
2022-10-02T19:39:21.658Z,47.87
2022-10-02T19:42:11.399Z,48.02
2022-10-02T19:44:59.529Z,47.67
2022-10-02T19:47:46.902Z,47.81
2022-10-02T19:50:42.600Z,47.94
2022-10-02T19:53:29.703Z,48.18
2022-10-02T19:56:16.949Z,47.96
2022-10-02T19:59:04.554Z,47.75
2022-10-02T20:01:52.726Z,47.43
2022-10-02T20:04:36.948Z,47.23
2022-10-02T20:07:25.874Z,46.56
2022-10-02T20:10:17.499Z,47.16
2022-10-02T20:13:12.507Z,46.36
2022-10-02T20:16:18.106Z,47.48
2022-10-02T20:19:03.383Z,46.29
2022-10-02T20:21:51.482Z,46.35
2022-10-02T20:24:41.893Z,46.40
2022-10-02T20:27:36.848Z,46.75
2022-10-02T20:30:22.676Z,47.21
2022-10-02T20:33:13.318Z,47.34
2022-10-02T20:36:03.276Z,48.78
2022-10-02T20:38:51.546Z,49.10
2022-10-02T20:41:43.027Z,49.45
2022-10-02T20:44:29.863Z,49.50
2022-10-02T20:47:44.848Z,50.10
2022-10-02T20:50:45.157Z,50.78
2022-10-02T20:54:12.585Z,50.44
2022-10-02T20:58:07.504Z,50.84
2022-10-02T21:01:10.611Z,50.74
2022-10-02T21:04:49.237Z,51.25
2022-10-02T21:08:04.833Z,51.87
2022-10-02T21:11:13.472Z,52.19
2022-10-02T21:14:42.443Z,52.43
2022-10-02T21:18:02.653Z,52.12
2022-10-02T21:21:20.346Z,51.93
2022-10-02T21:24:31.554Z,52.24
2022-10-02T21:27:43.002Z,52.84
2022-10-02T21:30:37.837Z,52.62
2022-10-02T21:33:24.041Z,53.08
2022-10-02T21:36:17.287Z,53.02
2022-10-02T21:39:36.784Z,52.58
2022-10-02T21:43:06.766Z,51.75
2022-10-02T21:46:23.076Z,52.64
2022-10-02T21:49:47.203Z,51.54
2022-10-02T21:53:22.162Z,51.42
2022-10-02T21:56:32.220Z,51.47
2022-10-02T21:59:40.091Z,52.18
2022-10-02T22:03:17.906Z,51.36
2022-10-02T22:06:19.324Z,51.71
2022-10-02T22:09:29.260Z,51.55
2022-10-02T22:12:27.815Z,51.63
2022-10-02T22:15:19.275Z,51.63
2022-10-02T22:18:15.287Z,50.96
2022-10-02T22:21:13.913Z,51.33
2022-10-02T22:24:34.406Z,51.36
2022-10-02T22:27:44.909Z,51.39
2022-10-02T22:30:31.105Z,51.54
2022-10-02T22:33:32.070Z,51.58
2022-10-02T22:36:34.446Z,52.35
2022-10-02T22:39:29.501Z,52.76
2022-10-02T22:42:20.480Z,52.99
2022-10-02T22:45:13.706Z,52.90
2022-10-02T22:48:04.161Z,53.33
2022-10-02T22:50:53.299Z,54.23
2022-10-02T22:53:42.870Z,54.87
2022-10-02T22:56:33.904Z,54.83
2022-10-02T22:59:22.439Z,54.99
2022-10-02T23:02:10.751Z,54.66
2022-10-02T23:05:05.333Z,54.76
2022-10-02T23:07:56.712Z,54.93
2022-10-02T23:10:45.351Z,54.92
2022-10-02T23:13:33.459Z,54.96
2022-10-02T23:16:26.646Z,55.54
2022-10-02T23:19:17.221Z,56.26
2022-10-02T23:22:08.632Z,56.28
2022-10-02T23:25:03.060Z,56.60
2022-10-02T23:27:52.860Z,56.71
2022-10-02T23:30:42.237Z,57.44
2022-10-02T23:33:28.550Z,57.50
2022-10-02T23:36:24.226Z,56.97
2022-10-02T23:39:16.725Z,57.57
2022-10-02T23:42:07.099Z,57.55
2022-10-02T23:44:58.365Z,57.67
2022-10-02T23:47:54.826Z,58.82
2022-10-02T23:50:47.142Z,58.61
2022-10-02T23:53:55.498Z,58.62
2022-10-02T23:57:02.818Z,57.75
